sensor_id;sensor_type;location;lat;lon;timestamp;temperature;humidity
6903;DHT22;20232;49.408;8.702;2023-02-28T05:02:05;0.00;99.90
6903;DHT22;20232;49.408;8.702;2023-02-28T05:04:34;0.10;99.90
6903;DHT22;20232;49.408;8.702;2023-02-28T05:07:00;0.10;99.90
6903;DHT22;20232;49.408;8.702;2023-02-28T05:09:26;0.10;99.90
6903;DHT22;20232;49.408;8.702;2023-02-28T05:11:52;0.10;99.90
6903;DHT22;20232;49.408;8.702;2023-02-28T05:14:18;0.10;99.90
6903;DHT22;20232;49.408;8.702;2023-02-28T05:16:43;0.10;99.90
6903;DHT22;20232;49.408;8.702;2023-02-28T05:19:09;0.20;99.90
6903;DHT22;20232;49.408;8.702;2023-02-28T05:21:40;0.20;99.90
6903;DHT22;20232;49.408;8.702;2023-02-28T05:24:08;0.20;99.90
6903;DHT22;20232;49.408;8.702;2023-02-28T05:26:36;0.20;99.90
6903;DHT22;20232;49.408;8.702;2023-02-28T05:29:03;0.20;99.90
6903;DHT22;20232;49.408;8.702;2023-02-28T05:31:28;0.20;99.90
6903;DHT22;20232;49.408;8.702;2023-02-28T05:33:54;0.20;99.90
6903;DHT22;20232;49.408;8.702;2023-02-28T05:36:22;0.20;99.90
6903;DHT22;20232;49.408;8.702;2023-02-28T05:38:49;0.20;99.90
6903;DHT22;20232;49.408;8.702;2023-02-28T05:41:15;0.20;99.90
6903;DHT22;20232;49.408;8.702;2023-02-28T05:43:41;0.30;99.90
6903;DHT22;20232;49.408;8.702;2023-02-28T05:46:09;0.30;99.90
6903;DHT22;20232;49.408;8.702;2023-02-28T05:48:36;0.40;99.90
6903;DHT22;20232;49.408;8.702;2023-02-28T05:51:02;0.40;99.90
6903;DHT22;20232;49.408;8.702;2023-02-28T05:53:28;0.30;99.90
6903;DHT22;20232;49.408;8.702;2023-02-28T05:55:54;0.30;99.90
6903;DHT22;20232;49.408;8.702;2023-02-28T05:58:20;0.30;99.90
6903;DHT22;20232;49.408;8.702;2023-02-28T06:00:46;0.30;99.90
6903;DHT22;20232;49.408;8.702;2023-02-28T06:03:12;0.30;99.90
6903;DHT22;20232;49.408;8.702;2023-02-28T06:05:37;0.40;99.90
6903;DHT22;20232;49.408;8.702;2023-02-28T06:08:04;0.30;99.90
6903;DHT22;20232;49.408;8.702;2023-02-28T06:10:31;0.30;99.90
6903;DHT22;20232;49.408;8.702;2023-02-28T06:13:00;0.20;99.90
6903;DHT22;20232;49.408;8.702;2023-02-28T06:15:26;0.20;99.90
6903;DHT22;20232;49.408;8.702;2023-02-28T06:17:51;0.20;99.90
6903;DHT22;20232;49.408;8.702;2023-02-28T06:20:17;0.20;99.90
6903;DHT22;20232;49.408;8.702;2023-02-28T06:22:43;0.20;99.90
6903;DHT22;20232;49.408;8.702;2023-02-28T06:25:09;0.20;99.90
6903;DHT22;20232;49.408;8.702;2023-02-28T06:27:35;0.10;99.90
6903;DHT22;20232;49.408;8.702;2023-02-28T06:30:01;0.20;99.90
6903;DHT22;20232;49.408;8.702;2023-02-28T06:32:26;0.20;99.90
6903;DHT22;20232;49.408;8.702;2023-02-28T06:34:52;0.20;99.90
6903;DHT22;20232;49.408;8.702;2023-02-28T06:37:18;0.30;99.90
6903;DHT22;20232;49.408;8.702;2023-02-28T06:39:44;0.30;99.90
6903;DHT22;20232;49.408;8.702;2023-02-28T06:42:10;0.20;99.90
6903;DHT22;20232;49.408;8.702;2023-02-28T06:44:35;0.10;99.90
6903;DHT22;20232;49.408;8.702;2023-02-28T06:47:02;0.10;99.90
6903;DHT22;20232;49.408;8.702;2023-02-28T06:49:32;0.20;99.90
6903;DHT22;20232;49.408;8.702;2023-02-28T06:51:58;0.20;99.90
6903;DHT22;20232;49.408;8.702;2023-02-28T06:54:23;0.30;99.90
6903;DHT22;20232;49.408;8.702;2023-02-28T06:56:49;0.20;99.90
6903;DHT22;20232;49.408;8.702;2023-02-28T06:59:16;0.30;99.90
6903;DHT22;20232;49.408;8.702;2023-02-28T07:01:42;0.30;99.90
6903;DHT22;20232;49.408;8.702;2023-02-28T07:04:08;0.30;99.90
6903;DHT22;20232;49.408;8.702;2023-02-28T07:06:33;0.40;99.90
6903;DHT22;20232;49.408;8.702;2023-02-28T07:08:59;0.40;99.90
6903;DHT22;20232;49.408;8.702;2023-02-28T07:11:27;0.40;99.90
6903;DHT22;20232;49.408;8.702;2023-02-28T07:13:54;0.50;99.90
6903;DHT22;20232;49.408;8.702;2023-02-28T07:16:22;0.60;99.90
6903;DHT22;20232;49.408;8.702;2023-02-28T07:18:48;0.60;99.90
6903;DHT22;20232;49.408;8.702;2023-02-28T07:21:14;0.60;99.90
6903;DHT22;20232;49.408;8.702;2023-02-28T07:23:40;0.70;99.90
6903;DHT22;20232;49.408;8.702;2023-02-28T07:26:10;0.60;99.90
6903;DHT22;20232;49.408;8.702;2023-02-28T07:28:36;0.60;99.90
6903;DHT22;20232;49.408;8.702;2023-02-28T07:31:04;0.70;99.90
6903;DHT22;20232;49.408;8.702;2023-02-28T07:33:30;0.80;99.90
6903;DHT22;20232;49.408;8.702;2023-02-28T07:36:04;0.90;99.90
6903;DHT22;20232;49.408;8.702;2023-02-28T07:38:30;0.90;99.90
6903;DHT22;20232;49.408;8.702;2023-02-28T07:40:56;1.00;99.90
6903;DHT22;20232;49.408;8.702;2023-02-28T07:43:22;1.00;99.90
6903;DHT22;20232;49.408;8.702;2023-02-28T07:45:47;1.10;99.90
6903;DHT22;20232;49.408;8.702;2023-02-28T07:48:13;1.00;99.90
6903;DHT22;20232;49.408;8.702;2023-02-28T07:50:38;1.00;99.90
6903;DHT22;20232;49.408;8.702;2023-02-28T07:53:04;1.10;99.90
6903;DHT22;20232;49.408;8.702;2023-02-28T07:55:29;1.10;99.90
6903;DHT22;20232;49.408;8.702;2023-02-28T07:57:57;1.20;99.90
6903;DHT22;20232;49.408;8.702;2023-02-28T08:00:23;1.20;99.90
6903;DHT22;20232;49.408;8.702;2023-02-28T08:02:48;1.10;99.90
6903;DHT22;20232;49.408;8.702;2023-02-28T08:05:14;1.10;99.90
6903;DHT22;20232;49.408;8.702;2023-02-28T08:07:40;1.10;99.90
6903;DHT22;20232;49.408;8.702;2023-02-28T08:10:06;1.10;99.90
6903;DHT22;20232;49.408;8.702;2023-02-28T08:12:32;1.20;99.90
6903;DHT22;20232;49.408;8.702;2023-02-28T08:14:58;1.20;99.90
6903;DHT22;20232;49.408;8.702;2023-02-28T08:17:23;1.30;99.90
6903;DHT22;20232;49.408;8.702;2023-02-28T08:19:49;1.40;99.90
6903;DHT22;20232;49.408;8.702;2023-02-28T08:22:14;1.40;99.90
6903;DHT22;20232;49.408;8.702;2023-02-28T08:24:43;1.50;99.90
6903;DHT22;20232;49.408;8.702;2023-02-28T08:27:10;1.60;99.90
6903;DHT22;20232;49.408;8.702;2023-02-28T08:29:39;1.50;99.90
6903;DHT22;20232;49.408;8.702;2023-02-28T08:32:06;1.60;99.90
6903;DHT22;20232;49.408;8.702;2023-02-28T08:34:32;1.60;99.90
6903;DHT22;20232;49.408;8.702;2023-02-28T08:36:58;1.60;99.90
6903;DHT22;20232;49.408;8.702;2023-02-28T08:39:23;1.70;99.90
6903;DHT22;20232;49.408;8.702;2023-02-28T08:41:49;1.50;99.90
6903;DHT22;20232;49.408;8.702;2023-02-28T08:44:14;1.60;99.90
6903;DHT22;20232;49.408;8.702;2023-02-28T08:46:40;1.70;99.80
6903;DHT22;20232;49.408;8.702;2023-02-28T08:49:05;1.70;99.90
6903;DHT22;20232;49.408;8.702;2023-02-28T08:51:32;1.80;99.90
6903;DHT22;20232;49.408;8.702;2023-02-28T08:53:59;2.00;99.90
6903;DHT22;20232;49.408;8.702;2023-02-28T08:56:27;2.10;99.20
6903;DHT22;20232;49.408;8.702;2023-02-28T08:58:55;2.20;99.50
6903;DHT22;20232;49.408;8.702;2023-02-28T09:01:26;2.20;99.10
6903;DHT22;20232;49.408;8.702;2023-02-28T09:03:52;2.10;98.80
6903;DHT22;20232;49.408;8.702;2023-02-28T09:06:20;2.20;98.70
6903;DHT22;20232;49.408;8.702;2023-02-28T09:08:46;2.40;98.20
6903;DHT22;20232;49.408;8.702;2023-02-28T09:11:11;2.50;98.20
6903;DHT22;20232;49.408;8.702;2023-02-28T09:13:38;2.50;98.10
6903;DHT22;20232;49.408;8.702;2023-02-28T09:16:05;2.70;97.70
6903;DHT22;20232;49.408;8.702;2023-02-28T09:18:33;3.30;97.40
6903;DHT22;20232;49.408;8.702;2023-02-28T09:20:58;3.70;96.00
6903;DHT22;20232;49.408;8.702;2023-02-28T09:23:24;3.90;95.30
6903;DHT22;20232;49.408;8.702;2023-02-28T09:25:53;4.20;95.20
6903;DHT22;20232;49.408;8.702;2023-02-28T09:28:20;4.40;94.70
6903;DHT22;20232;49.408;8.702;2023-02-28T09:30:52;4.80;94.90
6903;DHT22;20232;49.408;8.702;2023-02-28T09:33:18;5.50;94.10
6903;DHT22;20232;49.408;8.702;2023-02-28T09:35:49;6.10;94.30
6903;DHT22;20232;49.408;8.702;2023-02-28T09:38:15;6.80;92.10
6903;DHT22;20232;49.408;8.702;2023-02-28T09:40:53;7.10;91.20
6903;DHT22;20232;49.408;8.702;2023-02-28T09:43:23;7.00;90.10
6903;DHT22;20232;49.408;8.702;2023-02-28T09:48:36;6.60;87.50
6903;DHT22;20232;49.408;8.702;2023-02-28T09:53:50;7.10;87.60
6903;DHT22;20232;49.408;8.702;2023-02-28T09:56:21;6.80;88.50
6903;DHT22;20232;49.408;8.702;2023-02-28T10:01:43;7.50;87.30
6903;DHT22;20232;49.408;8.702;2023-02-28T10:07:17;6.70;85.90
6903;DHT22;20232;49.408;8.702;2023-02-28T10:09:47;6.40;85.70
6903;DHT22;20232;49.408;8.702;2023-02-28T10:12:15;6.60;85.60
6903;DHT22;20232;49.408;8.702;2023-02-28T10:14:45;6.40;85.30
6903;DHT22;20232;49.408;8.702;2023-02-28T10:17:21;6.50;84.60
6903;DHT22;20232;49.408;8.702;2023-02-28T10:20:05;6.80;85.50
6903;DHT22;20232;49.408;8.702;2023-02-28T10:22:52;7.20;85.90
6903;DHT22;20232;49.408;8.702;2023-02-28T10:25:25;7.60;83.00
6903;DHT22;20232;49.408;8.702;2023-02-28T10:28:01;7.80;86.20
6903;DHT22;20232;49.408;8.702;2023-02-28T10:30:27;8.60;83.60
6903;DHT22;20232;49.408;8.702;2023-02-28T10:32:53;8.60;81.80
6903;DHT22;20232;49.408;8.702;2023-02-28T10:35:24;8.90;79.90
6903;DHT22;20232;49.408;8.702;2023-02-28T10:37:54;8.90;84.40
6903;DHT22;20232;49.408;8.702;2023-02-28T10:43:05;8.70;80.00
6903;DHT22;20232;49.408;8.702;2023-02-28T10:45:35;8.30;79.00
6903;DHT22;20232;49.408;8.702;2023-02-28T10:48:03;8.60;81.30
6903;DHT22;20232;49.408;8.702;2023-02-28T10:53:31;8.30;77.20
6903;DHT22;20232;49.408;8.702;2023-02-28T11:01:17;8.20;78.40
6903;DHT22;20232;49.408;8.702;2023-02-28T11:03:43;8.30;77.30
6903;DHT22;20232;49.408;8.702;2023-02-28T11:09:13;7.50;79.40
6903;DHT22;20232;49.408;8.702;2023-02-28T11:11:45;7.40;79.10
6903;DHT22;20232;49.408;8.702;2023-02-28T11:14:25;7.00;80.00
6903;DHT22;20232;49.408;8.702;2023-02-28T11:16:52;7.50;81.40
6903;DHT22;20232;49.408;8.702;2023-02-28T11:19:34;7.80;78.60
6903;DHT22;20232;49.408;8.702;2023-02-28T11:22:02;7.10;79.30
6903;DHT22;20232;49.408;8.702;2023-02-28T11:24:40;7.30;79.60
6903;DHT22;20232;49.408;8.702;2023-02-28T11:27:11;7.10;79.30
6903;DHT22;20232;49.408;8.702;2023-02-28T11:29:49;6.70;80.90
6903;DHT22;20232;49.408;8.702;2023-02-28T11:32:22;7.20;80.70
6903;DHT22;20232;49.408;8.702;2023-02-28T11:35:04;7.10;80.40
6903;DHT22;20232;49.408;8.702;2023-02-28T11:37:39;7.00;82.00
6903;DHT22;20232;49.408;8.702;2023-02-28T11:40:17;7.20;80.20
6903;DHT22;20232;49.408;8.702;2023-02-28T11:43:02;7.00;80.50
6903;DHT22;20232;49.408;8.702;2023-02-28T11:48:23;7.90;80.70
6903;DHT22;20232;49.408;8.702;2023-02-28T11:50:56;8.20;77.30
6903;DHT22;20232;49.408;8.702;2023-02-28T11:56:51;8.40;77.80
6903;DHT22;20232;49.408;8.702;2023-02-28T12:01:57;7.90;77.00
6903;DHT22;20232;49.408;8.702;2023-02-28T12:05:09;7.80;77.70
6903;DHT22;20232;49.408;8.702;2023-02-28T12:16:35;7.90;77.90
6903;DHT22;20232;49.408;8.702;2023-02-28T12:22:01;8.00;77.10
6903;DHT22;20232;49.408;8.702;2023-02-28T12:27:03;8.00;77.40
6903;DHT22;20232;49.408;8.702;2023-02-28T12:29:43;8.30;76.60
6903;DHT22;20232;49.408;8.702;2023-02-28T12:34:55;8.20;77.30
6903;DHT22;20232;49.408;8.702;2023-02-28T12:37:36;8.50;76.20
6903;DHT22;20232;49.408;8.702;2023-02-28T12:40:14;8.70;73.00
6903;DHT22;20232;49.408;8.702;2023-02-28T12:42:47;8.60;72.60
6903;DHT22;20232;49.408;8.702;2023-02-28T12:45:26;7.90;75.90
6903;DHT22;20232;49.408;8.702;2023-02-28T12:48:00;7.60;75.30
6903;DHT22;20232;49.408;8.702;2023-02-28T12:50:28;7.40;76.10
6903;DHT22;20232;49.408;8.702;2023-02-28T12:53:07;7.60;76.10
6903;DHT22;20232;49.408;8.702;2023-02-28T13:03:43;8.30;74.20
6903;DHT22;20232;49.408;8.702;2023-02-28T13:06:23;8.40;76.00
6903;DHT22;20232;49.408;8.702;2023-02-28T13:09:09;8.80;74.00
6903;DHT22;20232;49.408;8.702;2023-02-28T13:11:40;8.70;76.10
6903;DHT22;20232;49.408;8.702;2023-02-28T13:14:35;8.20;74.80
6903;DHT22;20232;49.408;8.702;2023-02-28T13:19:31;8.10;76.20
6903;DHT22;20232;49.408;8.702;2023-02-28T13:21:58;8.20;74.80
6903;DHT22;20232;49.408;8.702;2023-02-28T13:24:47;8.20;74.70
6903;DHT22;20232;49.408;8.702;2023-02-28T13:29:40;8.00;75.50
6903;DHT22;20232;49.408;8.702;2023-02-28T13:34:38;8.00;73.90
6903;DHT22;20232;49.408;8.702;2023-02-28T13:39:55;8.00;75.40
6903;DHT22;20232;49.408;8.702;2023-02-28T13:53:17;8.50;74.80
6903;DHT22;20232;49.408;8.702;2023-02-28T13:56:08;8.70;74.60
6903;DHT22;20232;49.408;8.702;2023-02-28T13:58:43;8.80;73.30
6903;DHT22;20232;49.408;8.702;2023-02-28T14:01:23;8.40;73.10
6903;DHT22;20232;49.408;8.702;2023-02-28T14:06:47;7.60;74.00
6903;DHT22;20232;49.408;8.702;2023-02-28T14:09:30;7.50;76.00
6903;DHT22;20232;49.408;8.702;2023-02-28T14:11:57;7.90;77.40
6903;DHT22;20232;49.408;8.702;2023-02-28T14:17:08;8.10;76.20
6903;DHT22;20232;49.408;8.702;2023-02-28T14:19:38;8.10;74.70
6903;DHT22;20232;49.408;8.702;2023-02-28T14:27:45;8.30;74.80
6903;DHT22;20232;49.408;8.702;2023-02-28T14:33:20;8.50;74.60
6903;DHT22;20232;49.408;8.702;2023-02-28T14:35:54;8.30;74.60
6903;DHT22;20232;49.408;8.702;2023-02-28T14:38:30;8.00;75.20
6903;DHT22;20232;49.408;8.702;2023-02-28T14:40:58;7.70;76.80
6903;DHT22;20232;49.408;8.702;2023-02-28T14:43:27;7.60;77.00
6903;DHT22;20232;49.408;8.702;2023-02-28T14:46:04;7.80;77.70
6903;DHT22;20232;49.408;8.702;2023-02-28T14:48:31;8.00;76.40
6903;DHT22;20232;49.408;8.702;2023-02-28T14:50:58;8.40;77.20
6903;DHT22;20232;49.408;8.702;2023-02-28T14:53:28;8.60;76.20
6903;DHT22;20232;49.408;8.702;2023-02-28T14:55:54;8.50;74.20
6903;DHT22;20232;49.408;8.702;2023-02-28T14:58:27;8.40;75.60
6903;DHT22;20232;49.408;8.702;2023-02-28T15:00:55;8.50;75.60
6903;DHT22;20232;49.408;8.702;2023-02-28T15:03:31;8.50;76.20
6903;DHT22;20232;49.408;8.702;2023-02-28T15:06:03;8.50;76.30
6903;DHT22;20232;49.408;8.702;2023-02-28T15:08:29;8.70;75.70
6903;DHT22;20232;49.408;8.702;2023-02-28T15:11:03;8.80;74.80
6903;DHT22;20232;49.408;8.702;2023-02-28T15:13:50;9.10;75.60
6903;DHT22;20232;49.408;8.702;2023-02-28T15:16:25;9.20;74.70
6903;DHT22;20232;49.408;8.702;2023-02-28T15:19:07;9.30;75.90
6903;DHT22;20232;49.408;8.702;2023-02-28T15:21:40;9.70;74.50
6903;DHT22;20232;49.408;8.702;2023-02-28T15:24:21;9.60;72.20
6903;DHT22;20232;49.408;8.702;2023-02-28T15:26:58;9.00;72.50
6903;DHT22;20232;49.408;8.702;2023-02-28T15:29:27;8.90;75.20
6903;DHT22;20232;49.408;8.702;2023-02-28T15:32:01;9.10;74.90
6903;DHT22;20232;49.408;8.702;2023-02-28T15:34:34;9.40;75.70
6903;DHT22;20232;49.408;8.702;2023-02-28T15:37:01;9.80;74.80
6903;DHT22;20232;49.408;8.702;2023-02-28T15:39:28;9.60;73.20
6903;DHT22;20232;49.408;8.702;2023-02-28T15:42:19;9.40;74.70
6903;DHT22;20232;49.408;8.702;2023-02-28T15:44:45;9.30;74.30
6903;DHT22;20232;49.408;8.702;2023-02-28T15:47:25;9.00;74.20
6903;DHT22;20232;49.408;8.702;2023-02-28T15:49:58;8.70;75.90
6903;DHT22;20232;49.408;8.702;2023-02-28T15:52:38;8.50;76.50
6903;DHT22;20232;49.408;8.702;2023-02-28T15:57:44;8.60;76.10
6903;DHT22;20232;49.408;8.702;2023-02-28T16:00:14;8.40;75.60
6903;DHT22;20232;49.408;8.702;2023-02-28T16:02:40;8.10;76.70
6903;DHT22;20232;49.408;8.702;2023-02-28T16:07:39;7.90;77.60
6903;DHT22;20232;49.408;8.702;2023-02-28T16:10:06;7.90;77.90
6903;DHT22;20232;49.408;8.702;2023-02-28T16:12:35;8.00;78.70
6903;DHT22;20232;49.408;8.702;2023-02-28T16:15:06;7.90;78.00
6903;DHT22;20232;49.408;8.702;2023-02-28T16:17:34;7.70;77.50
6903;DHT22;20232;49.408;8.702;2023-02-28T16:20:00;7.50;77.80
6903;DHT22;20232;49.408;8.702;2023-02-28T16:22:26;7.30;77.70
6903;DHT22;20232;49.408;8.702;2023-02-28T16:24:52;7.10;80.00
6903;DHT22;20232;49.408;8.702;2023-02-28T16:27:28;7.00;79.20
6903;DHT22;20232;49.408;8.702;2023-02-28T16:29:55;6.80;80.40
6903;DHT22;20232;49.408;8.702;2023-02-28T16:32:21;6.70;80.50
6903;DHT22;20232;49.408;8.702;2023-02-28T16:34:46;6.70;82.40
6903;DHT22;20232;49.408;8.702;2023-02-28T16:37:14;6.70;81.10
6903;DHT22;20232;49.408;8.702;2023-02-28T16:39:41;6.70;81.70
6903;DHT22;20232;49.408;8.702;2023-02-28T16:42:14;6.50;81.10
6903;DHT22;20232;49.408;8.702;2023-02-28T16:44:41;6.20;81.90
6903;DHT22;20232;49.408;8.702;2023-02-28T16:47:09;6.00;82.00
6903;DHT22;20232;49.408;8.702;2023-02-28T16:49:35;5.80;82.10
6903;DHT22;20232;49.408;8.702;2023-02-28T16:52:00;5.70;82.50
6903;DHT22;20232;49.408;8.702;2023-02-28T16:54:26;5.60;83.30
6903;DHT22;20232;49.408;8.702;2023-02-28T16:56:52;5.50;84.00
6903;DHT22;20232;49.408;8.702;2023-02-28T16:59:21;5.50;84.40
6903;DHT22;20232;49.408;8.702;2023-02-28T17:01:48;5.60;84.70
6903;DHT22;20232;49.408;8.702;2023-02-28T17:04:15;5.50;83.70
6903;DHT22;20232;49.408;8.702;2023-02-28T17:06:41;5.40;88.20
6903;DHT22;20232;49.408;8.702;2023-02-28T17:09:16;5.50;88.60
6903;DHT22;20232;49.408;8.702;2023-02-28T17:11:42;5.60;86.60
6903;DHT22;20232;49.408;8.702;2023-02-28T17:14:08;5.60;87.00
6903;DHT22;20232;49.408;8.702;2023-02-28T17:16:35;5.60;87.20
6903;DHT22;20232;49.408;8.702;2023-02-28T17:19:03;5.50;86.90
6903;DHT22;20232;49.408;8.702;2023-02-28T17:21:29;5.40;85.60
6903;DHT22;20232;49.408;8.702;2023-02-28T17:23:55;5.20;87.60
6903;DHT22;20232;49.408;8.702;2023-02-28T17:26:22;5.20;87.80
6903;DHT22;20232;49.408;8.702;2023-02-28T17:28:51;5.10;87.10
6903;DHT22;20232;49.408;8.702;2023-02-28T17:31:17;5.10;89.60
6903;DHT22;20232;49.408;8.702;2023-02-28T17:33:43;5.00;88.10
6903;DHT22;20232;49.408;8.702;2023-02-28T17:36:18;4.90;89.10
6903;DHT22;20232;49.408;8.702;2023-02-28T17:38:47;4.70;90.30
6903;DHT22;20232;49.408;8.702;2023-02-28T17:41:12;4.70;90.20
6903;DHT22;20232;49.408;8.702;2023-02-28T17:43:38;4.60;90.60
6903;DHT22;20232;49.408;8.702;2023-02-28T17:46:04;4.50;91.10
6903;DHT22;20232;49.408;8.702;2023-02-28T17:48:31;4.40;91.30
6903;DHT22;20232;49.408;8.702;2023-02-28T17:50:57;4.30;91.70
6903;DHT22;20232;49.408;8.702;2023-02-28T17:53:22;4.20;91.90
6903;DHT22;20232;49.408;8.702;2023-02-28T17:55:49;4.10;92.10
6903;DHT22;20232;49.408;8.702;2023-02-28T17:58:15;4.10;92.40
6903;DHT22;20232;49.408;8.702;2023-02-28T18:00:41;4.00;93.60
6903;DHT22;20232;49.408;8.702;2023-02-28T18:03:07;3.90;92.70
6903;DHT22;20232;49.408;8.702;2023-02-28T18:05:33;3.90;93.70
6903;DHT22;20232;49.408;8.702;2023-02-28T18:07:59;3.80;93.20
6903;DHT22;20232;49.408;8.702;2023-02-28T18:10:25;3.80;93.40
6903;DHT22;20232;49.408;8.702;2023-02-28T18:12:53;3.70;94.40
6903;DHT22;20232;49.408;8.702;2023-02-28T18:15:20;3.70;94.10
6903;DHT22;20232;49.408;8.702;2023-02-28T18:17:47;3.70;94.10
6903;DHT22;20232;49.408;8.702;2023-02-28T18:20:13;3.60;94.50
6903;DHT22;20232;49.408;8.702;2023-02-28T18:22:40;3.60;95.50
6903;DHT22;20232;49.408;8.702;2023-02-28T18:25:07;3.50;94.70
6903;DHT22;20232;49.408;8.702;2023-02-28T18:27:34;3.50;94.90
6903;DHT22;20232;49.408;8.702;2023-02-28T18:30:00;3.40;94.80
6903;DHT22;20232;49.408;8.702;2023-02-28T18:32:28;3.40;96.00
6903;DHT22;20232;49.408;8.702;2023-02-28T18:34:53;3.40;95.40
6903;DHT22;20232;49.408;8.702;2023-02-28T18:37:19;3.40;95.10
6903;DHT22;20232;49.408;8.702;2023-02-28T18:39:45;3.30;95.50
6903;DHT22;20232;49.408;8.702;2023-02-28T18:42:10;3.30;94.90
6903;DHT22;20232;49.408;8.702;2023-02-28T18:44:37;3.20;95.20
6903;DHT22;20232;49.408;8.702;2023-02-28T18:47:02;3.20;96.30
6903;DHT22;20232;49.408;8.702;2023-02-28T18:49:30;3.20;95.20
6903;DHT22;20232;49.408;8.702;2023-02-28T18:51:56;3.10;95.50
6903;DHT22;20232;49.408;8.702;2023-02-28T18:54:22;3.00;96.80
6903;DHT22;20232;49.408;8.702;2023-02-28T18:56:48;3.00;95.60
6903;DHT22;20232;49.408;8.702;2023-02-28T18:59:15;3.00;96.70
6903;DHT22;20232;49.408;8.702;2023-02-28T19:01:41;3.10;95.50
6903;DHT22;20232;49.408;8.702;2023-02-28T19:04:06;3.10;95.00
6903;DHT22;20232;49.408;8.702;2023-02-28T19:06:36;3.10;95.20
6903;DHT22;20232;49.408;8.702;2023-02-28T19:09:03;3.10;95.80
6903;DHT22;20232;49.408;8.702;2023-02-28T19:11:29;3.00;96.10
6903;DHT22;20232;49.408;8.702;2023-02-28T19:13:55;3.00;96.40
6903;DHT22;20232;49.408;8.702;2023-02-28T19:16:22;2.90;95.80
6903;DHT22;20232;49.408;8.702;2023-02-28T19:18:48;2.90;96.80
6903;DHT22;20232;49.408;8.702;2023-02-28T19:21:16;2.90;96.10
6903;DHT22;20232;49.408;8.702;2023-02-28T19:23:42;2.80;96.00
6903;DHT22;20232;49.408;8.702;2023-02-28T19:26:13;2.80;96.80
6903;DHT22;20232;49.408;8.702;2023-02-28T19:28:40;2.80;96.70
6903;DHT22;20232;49.408;8.702;2023-02-28T19:31:11;2.80;96.40
6903;DHT22;20232;49.408;8.702;2023-02-28T19:33:37;2.70;96.80
6903;DHT22;20232;49.408;8.702;2023-02-28T19:36:03;2.70;96.70
6903;DHT22;20232;49.408;8.702;2023-02-28T19:38:29;2.70;96.20
6903;DHT22;20232;49.408;8.702;2023-02-28T19:41:00;2.70;96.20
6903;DHT22;20232;49.408;8.702;2023-02-28T19:43:25;2.70;96.70
6903;DHT22;20232;49.408;8.702;2023-02-28T19:45:51;2.60;96.30
6903;DHT22;20232;49.408;8.702;2023-02-28T19:48:17;2.60;97.90
6903;DHT22;20232;49.408;8.702;2023-02-28T19:50:42;2.60;97.40
6903;DHT22;20232;49.408;8.702;2023-02-28T19:53:08;2.50;97.40
6903;DHT22;20232;49.408;8.702;2023-02-28T19:55:33;2.50;98.10
6903;DHT22;20232;49.408;8.702;2023-02-28T19:58:01;2.50;98.30
6903;DHT22;20232;49.408;8.702;2023-02-28T20:00:27;2.50;98.20
6903;DHT22;20232;49.408;8.702;2023-02-28T20:02:53;2.50;97.80
6903;DHT22;20232;49.408;8.702;2023-02-28T20:05:18;2.40;99.90
6903;DHT22;20232;49.408;8.702;2023-02-28T20:07:44;2.40;98.40
6903;DHT22;20232;49.408;8.702;2023-02-28T20:10:10;2.30;97.80
6903;DHT22;20232;49.408;8.702;2023-02-28T20:12:35;2.20;98.40
6903;DHT22;20232;49.408;8.702;2023-02-28T20:15:01;2.20;98.20
6903;DHT22;20232;49.408;8.702;2023-02-28T20:17:27;2.30;97.40
6903;DHT22;20232;49.408;8.702;2023-02-28T20:19:53;2.30;98.10
6903;DHT22;20232;49.408;8.702;2023-02-28T20:22:19;2.30;97.70
6903;DHT22;20232;49.408;8.702;2023-02-28T20:24:46;2.30;98.90
6903;DHT22;20232;49.408;8.702;2023-02-28T20:27:11;2.30;99.00
6903;DHT22;20232;49.408;8.702;2023-02-28T20:29:37;2.30;98.50
6903;DHT22;20232;49.408;8.702;2023-02-28T20:32:02;2.30;99.30
6903;DHT22;20232;49.408;8.702;2023-02-28T20:34:28;2.20;98.60
6903;DHT22;20232;49.408;8.702;2023-02-28T20:36:53;2.10;98.60
6903;DHT22;20232;49.408;8.702;2023-02-28T20:39:21;2.00;98.00
6903;DHT22;20232;49.408;8.702;2023-02-28T20:41:47;2.00;99.20
6903;DHT22;20232;49.408;8.702;2023-02-28T20:44:13;2.00;99.10
6903;DHT22;20232;49.408;8.702;2023-02-28T20:46:38;2.00;98.30
6903;DHT22;20232;49.408;8.702;2023-02-28T20:49:05;2.00;98.50
6903;DHT22;20232;49.408;8.702;2023-02-28T20:51:31;1.90;99.40
6903;DHT22;20232;49.408;8.702;2023-02-28T20:53:57;2.00;98.20
6903;DHT22;20232;49.408;8.702;2023-02-28T20:56:22;2.10;97.40
6903;DHT22;20232;49.408;8.702;2023-02-28T20:58:52;2.20;97.40
6903;DHT22;20232;49.408;8.702;2023-02-28T21:01:22;2.30;96.90
6903;DHT22;20232;49.408;8.702;2023-02-28T21:04:01;2.40;96.50
6903;DHT22;20232;49.408;8.702;2023-02-28T21:06:36;2.50;96.60
6903;DHT22;20232;49.408;8.702;2023-02-28T21:09:04;2.60;95.30
6903;DHT22;20232;49.408;8.702;2023-02-28T21:11:33;2.60;95.60
6903;DHT22;20232;49.408;8.702;2023-02-28T21:14:13;2.70;95.50
6903;DHT22;20232;49.408;8.702;2023-02-28T21:16:40;2.80;94.90
6903;DHT22;20232;49.408;8.702;2023-02-28T21:19:05;2.80;95.20
6903;DHT22;20232;49.408;8.702;2023-02-28T21:21:42;2.70;95.00
6903;DHT22;20232;49.408;8.702;2023-02-28T21:24:13;2.80;95.20
6903;DHT22;20232;49.408;8.702;2023-02-28T21:26:40;2.70;95.70
6903;DHT22;20232;49.408;8.702;2023-02-28T21:29:06;2.70;95.50
6903;DHT22;20232;49.408;8.702;2023-02-28T21:31:33;2.70;95.40
6903;DHT22;20232;49.408;8.702;2023-02-28T21:34:00;2.60;95.60
6903;DHT22;20232;49.408;8.702;2023-02-28T21:36:29;2.60;95.70
6903;DHT22;20232;49.408;8.702;2023-02-28T21:38:59;2.60;95.80
6903;DHT22;20232;49.408;8.702;2023-02-28T21:41:26;2.60;95.50
6903;DHT22;20232;49.408;8.702;2023-02-28T21:43:54;2.70;95.40
6903;DHT22;20232;49.408;8.702;2023-02-28T21:46:25;2.70;95.00
6903;DHT22;20232;49.408;8.702;2023-02-28T21:48:50;2.70;95.70
6903;DHT22;20232;49.408;8.702;2023-02-28T21:51:19;2.70;96.30
6903;DHT22;20232;49.408;8.702;2023-02-28T21:53:45;2.60;95.80
6903;DHT22;20232;49.408;8.702;2023-02-28T21:56:13;2.70;95.70
6903;DHT22;20232;49.408;8.702;2023-02-28T21:58:40;2.60;95.80
6903;DHT22;20232;49.408;8.702;2023-02-28T22:01:11;2.60;95.70
6903;DHT22;20232;49.408;8.702;2023-02-28T22:03:38;2.60;95.70
6903;DHT22;20232;49.408;8.702;2023-02-28T22:06:21;2.60;95.60
6903;DHT22;20232;49.408;8.702;2023-02-28T22:08:55;2.60;95.30
6903;DHT22;20232;49.408;8.702;2023-02-28T22:11:21;2.60;95.60
6903;DHT22;20232;49.408;8.702;2023-02-28T22:13:47;2.60;96.30
6903;DHT22;20232;49.408;8.702;2023-02-28T22:16:17;2.50;95.70
6903;DHT22;20232;49.408;8.702;2023-02-28T22:18:43;2.50;96.00
6903;DHT22;20232;49.408;8.702;2023-02-28T22:21:10;2.50;95.80
6903;DHT22;20232;49.408;8.702;2023-02-28T22:23:37;2.50;95.40
6903;DHT22;20232;49.408;8.702;2023-02-28T22:26:06;2.50;95.70
6903;DHT22;20232;49.408;8.702;2023-02-28T22:28:31;2.60;95.70
6903;DHT22;20232;49.408;8.702;2023-02-28T22:30:58;2.50;95.70
6903;DHT22;20232;49.408;8.702;2023-02-28T22:33:25;2.50;95.90
6903;DHT22;20232;49.408;8.702;2023-02-28T22:35:51;2.50;95.90
6903;DHT22;20232;49.408;8.702;2023-02-28T22:38:17;2.50;96.10
6903;DHT22;20232;49.408;8.702;2023-02-28T22:40:42;2.50;96.00
6903;DHT22;20232;49.408;8.702;2023-02-28T22:43:08;2.40;96.10
6903;DHT22;20232;49.408;8.702;2023-02-28T22:45:35;2.40;96.10
6903;DHT22;20232;49.408;8.702;2023-02-28T22:48:05;2.40;96.10
6903;DHT22;20232;49.408;8.702;2023-02-28T22:50:32;2.40;96.20
6903;DHT22;20232;49.408;8.702;2023-02-28T22:52:58;2.40;96.40